createdAt,value
2019-05-17T00:00:00.016Z,100818.25
2019-05-17T00:01:07.578Z,100813.45
2019-05-17T00:02:17.318Z,100814.70
2019-05-17T00:03:26.926Z,100811.19
2019-05-17T00:04:36.266Z,100811.64
2019-05-17T00:05:42.723Z,100812.28
2019-05-17T00:06:50.217Z,100811.07
2019-05-17T00:07:57.383Z,100809.83
2019-05-17T00:09:07.067Z,100808.50
2019-05-17T00:10:17.023Z,100795.55
2019-05-17T00:11:24.205Z,100806.99
2019-05-17T00:12:31.443Z,100803.14
2019-05-17T00:13:39.113Z,100808.62
2019-05-17T00:14:47.251Z,100803.06
2019-05-17T00:15:56.579Z,100800.27
2019-05-17T00:17:03.896Z,100802.53
2019-05-17T00:18:11.855Z,100799.02
2019-05-17T00:19:19.047Z,100803.67
2019-05-17T00:20:26.738Z,100800.23
2019-05-17T00:21:33.587Z,100801.37
2019-05-17T00:22:41.493Z,100802.34
2019-05-17T00:23:48.274Z,100799.22
2019-05-17T00:24:56.800Z,100799.17
2019-05-17T00:26:04.194Z,100797.83
2019-05-17T00:27:11.681Z,100794.31
2019-05-17T00:28:18.780Z,100792.61
2019-05-17T00:29:26.483Z,100794.16
2019-05-17T00:30:33.730Z,100791.10
2019-05-17T00:31:41.205Z,100791.33
2019-05-17T00:32:48.081Z,100788.57
2019-05-17T00:33:56.674Z,100786.01
2019-05-17T00:35:03.726Z,100784.69
2019-05-17T00:36:11.967Z,100787.17
2019-05-17T00:37:19.304Z,100788.95
2019-05-17T00:38:27.522Z,100786.23
2019-05-17T00:39:36.689Z,100781.06
2019-05-17T00:40:44.120Z,100783.17
2019-05-17T00:41:50.902Z,100783.09
2019-05-17T00:42:58.411Z,100783.52
2019-05-17T00:44:06.318Z,100786.12
2019-05-17T00:45:17.302Z,100781.77
2019-05-17T00:46:23.366Z,100775.44
2019-05-17T00:47:30.871Z,100780.00
2019-05-17T00:48:58.157Z,100779.09
2019-05-17T00:50:07.379Z,100772.79
2019-05-17T00:51:16.700Z,100777.51
2019-05-17T00:52:24.410Z,100774.08
2019-05-17T00:53:31.527Z,100777.47
2019-05-17T00:54:39.028Z,100768.11
2019-05-17T00:55:46.645Z,100766.82
2019-05-17T00:56:56.535Z,100764.00
2019-05-17T00:58:06.751Z,100766.07
2019-05-17T00:59:16.824Z,100758.86
2019-05-17T01:00:23.416Z,100754.72
2019-05-17T01:01:31.466Z,100752.64
2019-05-17T01:02:38.217Z,100743.88
2019-05-17T01:03:47.676Z,100749.55
2019-05-17T01:04:56.727Z,100747.02
2019-05-17T01:06:06.158Z,100740.83
2019-05-17T01:07:12.895Z,100742.63
2019-05-17T01:08:20.373Z,100744.41
2019-05-17T01:09:27.379Z,100742.33
2019-05-17T01:10:36.898Z,100743.16
2019-05-17T01:11:43.727Z,100744.75
2019-05-17T01:12:51.699Z,100739.35
2019-05-17T01:13:58.796Z,100738.22
2019-05-17T01:15:07.573Z,100735.61
2019-05-17T01:16:16.549Z,100736.33
2019-05-17T01:17:24.231Z,100735.47
2019-05-17T01:18:30.993Z,100736.22
2019-05-17T01:19:38.511Z,100731.95
2019-05-17T01:20:47.284Z,100732.45
2019-05-17T01:21:56.844Z,100729.98
2019-05-17T01:23:03.390Z,100720.22
2019-05-17T01:24:10.969Z,100725.69
2019-05-17T01:25:17.791Z,100731.95
2019-05-17T01:26:26.732Z,100725.02
2019-05-17T01:27:34.305Z,100722.86
2019-05-17T01:28:42.179Z,100722.86
2019-05-17T01:29:49.263Z,100721.54
2019-05-17T01:30:57.452Z,100728.00
2019-05-17T01:32:06.751Z,100719.05
2019-05-17T01:33:13.984Z,100719.50
2019-05-17T01:34:21.063Z,100719.09
2019-05-17T01:35:28.538Z,100721.66
2019-05-17T01:36:37.063Z,100716.94
2019-05-17T01:37:44.545Z,100720.34
2019-05-17T01:38:51.306Z,100718.75
2019-05-17T01:39:58.803Z,100714.98
2019-05-17T01:41:07.031Z,100716.83
2019-05-17T01:42:17.120Z,100719.84
2019-05-17T01:43:24.230Z,100715.99
2019-05-17T01:44:32.726Z,100712.64
2019-05-17T01:45:40.236Z,100715.13
2019-05-17T01:46:47.732Z,100712.79
2019-05-17T01:47:56.308Z,100711.89
2019-05-17T01:49:06.724Z,100716.98
2019-05-17T01:50:13.455Z,100708.87
2019-05-17T01:51:20.987Z,100710.45
2019-05-17T01:52:27.781Z,100714.41
2019-05-17T01:53:36.499Z,100713.09
2019-05-17T01:54:43.475Z,100707.47
2019-05-17T01:55:51.643Z,100707.92
2019-05-17T01:56:58.404Z,100711.13
2019-05-17T01:58:07.290Z,100717.66
2019-05-17T01:59:14.456Z,100707.88
2019-05-17T02:00:26.425Z,100711.73
2019-05-17T02:01:32.464Z,100704.34
2019-05-17T02:02:42.389Z,100706.53
2019-05-17T02:03:49.559Z,100709.55
2019-05-17T02:04:57.405Z,100708.75
2019-05-17T02:06:07.232Z,100701.88
2019-05-17T02:07:13.738Z,100707.81
2019-05-17T02:08:20.474Z,100706.27
2019-05-17T02:09:37.075Z,100705.43
2019-05-17T02:10:37.789Z,100703.80
2019-05-17T02:11:46.696Z,100699.02
2019-05-17T02:12:53.632Z,100697.47
2019-05-17T02:14:01.142Z,100691.28
2019-05-17T02:15:10.071Z,100697.13
2019-05-17T02:16:17.539Z,100697.17
2019-05-17T02:17:26.584Z,100697.66
2019-05-17T02:18:33.934Z,100699.81
2019-05-17T02:19:40.788Z,100689.31
2019-05-17T02:20:48.289Z,100694.15
2019-05-17T02:21:57.005Z,100693.70
2019-05-17T02:23:07.268Z,100694.11
2019-05-17T02:24:13.548Z,100691.46
2019-05-17T02:25:21.250Z,100692.33
2019-05-17T02:26:27.988Z,100694.45
2019-05-17T02:27:41.274Z,100689.73
2019-05-17T02:28:44.735Z,100690.30
2019-05-17T02:29:52.242Z,100691.23
2019-05-17T02:31:03.236Z,100690.48
2019-05-17T02:32:12.613Z,100683.21
2019-05-17T02:33:18.930Z,100685.78
2019-05-17T02:34:26.783Z,100679.77
2019-05-17T02:35:34.380Z,100680.38
2019-05-17T02:36:43.098Z,100680.45
2019-05-17T02:37:53.216Z,100681.41
2019-05-17T02:38:59.302Z,100680.45
2019-05-17T02:40:08.719Z,100679.06
2019-05-17T02:41:16.727Z,100679.73
2019-05-17T02:42:23.484Z,100678.75
2019-05-17T02:43:33.551Z,100671.73
2019-05-17T02:44:43.581Z,100676.05
2019-05-17T02:45:52.492Z,100672.08
2019-05-17T02:46:57.800Z,100670.34
2019-05-17T02:48:05.362Z,100674.64
2019-05-17T02:49:13.792Z,100672.48
2019-05-17T02:50:23.356Z,100667.70
2019-05-17T02:51:32.370Z,100665.66
2019-05-17T02:52:43.050Z,100665.17
2019-05-17T02:53:48.584Z,100668.48
2019-05-17T02:54:56.274Z,100664.27
2019-05-17T02:56:03.705Z,100665.13
2019-05-17T02:57:14.288Z,100662.98
2019-05-17T02:58:23.086Z,100665.80
2019-05-17T02:59:32.785Z,100664.27
2019-05-17T03:00:38.262Z,100660.49
2019-05-17T03:01:45.746Z,100662.91
2019-05-17T03:02:53.750Z,100658.64
2019-05-17T03:04:03.783Z,100657.92
2019-05-17T03:05:12.806Z,100656.86
2019-05-17T03:06:22.739Z,100662.03
2019-05-17T03:07:32.445Z,100659.88
2019-05-17T03:08:38.516Z,100659.47
2019-05-17T03:09:45.323Z,100656.48
2019-05-17T03:10:53.646Z,100660.26
2019-05-17T03:12:03.373Z,100660.18
2019-05-17T03:13:13.230Z,100664.56
2019-05-17T03:14:19.159Z,100652.64
2019-05-17T03:15:27.078Z,100657.20
2019-05-17T03:16:34.110Z,100656.37
2019-05-17T03:17:43.477Z,100660.71
2019-05-17T03:18:53.003Z,100654.79
2019-05-17T03:20:03.563Z,100647.09
2019-05-17T03:21:08.649Z,100656.82
2019-05-17T03:22:16.134Z,100656.86
2019-05-17T03:23:23.686Z,100649.95
2019-05-17T03:24:33.251Z,100655.62
2019-05-17T03:25:43.786Z,100656.41
2019-05-17T03:26:52.672Z,100653.84
2019-05-17T03:27:58.213Z,100658.59
2019-05-17T03:29:06.093Z,100658.11
2019-05-17T03:30:17.536Z,100656.07
2019-05-17T03:31:26.434Z,100654.16
2019-05-17T03:32:36.126Z,100654.08
2019-05-17T03:33:45.970Z,100646.42
2019-05-17T03:34:56.130Z,100653.17
2019-05-17T03:36:06.202Z,100654.45
2019-05-17T03:37:15.566Z,100652.76
2019-05-17T03:38:19.341Z,100657.13
2019-05-17T03:39:26.501Z,100647.66
2019-05-17T03:41:03.663Z,100643.86
2019-05-17T03:41:43.357Z,100646.50
2019-05-17T03:42:53.500Z,100640.75
2019-05-17T03:44:02.941Z,100641.33
2019-05-17T03:45:09.324Z,100646.34
2019-05-17T03:46:16.803Z,100643.14
2019-05-17T03:47:24.917Z,100644.05
2019-05-17T03:48:33.394Z,100635.15
2019-05-17T03:49:43.707Z,100639.94
2019-05-17T03:50:52.860Z,100635.23
2019-05-17T03:52:02.494Z,100634.73
2019-05-17T03:53:08.632Z,100632.29
2019-05-17T03:54:16.514Z,100632.13
2019-05-17T03:55:23.642Z,100630.73
2019-05-17T03:56:33.036Z,100632.55
2019-05-17T03:57:44.065Z,100635.91
2019-05-17T03:58:53.127Z,100631.52
2019-05-17T03:59:59.210Z,100631.52
2019-05-17T04:01:07.131Z,100629.33
2019-05-17T04:02:13.979Z,100621.71
2019-05-17T04:03:22.899Z,100620.80
2019-05-17T04:04:32.905Z,100621.71
2019-05-17T04:05:42.632Z,100628.46
2019-05-17T04:06:48.464Z,100625.94
2019-05-17T04:07:56.007Z,100619.89
2019-05-17T04:09:04.573Z,100620.56
2019-05-17T04:10:15.258Z,100618.41
2019-05-17T04:11:31.000Z,100621.52
2019-05-17T04:12:32.754Z,100628.34
2019-05-17T04:13:43.003Z,100622.17
2019-05-17T04:14:53.370Z,100632.11
2019-05-17T04:15:59.341Z,100626.19
2019-05-17T04:17:06.873Z,100625.28
2019-05-17T04:18:13.723Z,100623.55
2019-05-17T04:19:22.966Z,100626.16
2019-05-17T04:20:33.120Z,100626.06
2019-05-17T04:21:42.693Z,100623.01
2019-05-17T04:22:48.549Z,100624.78
2019-05-17T04:23:56.082Z,100624.91
2019-05-17T04:25:03.368Z,100628.59
2019-05-17T04:26:13.571Z,100632.56
2019-05-17T04:27:22.798Z,100630.62
2019-05-17T04:28:29.132Z,100631.11
2019-05-17T04:29:36.231Z,100627.59
2019-05-17T04:30:44.612Z,100632.77
2019-05-17T04:31:54.240Z,100629.78
2019-05-17T04:33:03.596Z,100627.04
2019-05-17T04:34:09.051Z,100633.83
2019-05-17T04:35:16.654Z,100632.05
2019-05-17T04:36:23.491Z,100628.95
2019-05-17T04:37:33.602Z,100629.25
2019-05-17T04:38:39.650Z,100632.98
2019-05-17T04:39:47.548Z,100622.84
2019-05-17T04:40:54.346Z,100629.17
2019-05-17T04:42:03.696Z,100628.27
2019-05-17T04:43:13.582Z,100626.45
2019-05-17T04:44:22.966Z,100627.20
2019-05-17T04:45:29.601Z,100622.14
2019-05-17T04:46:37.150Z,100627.91
2019-05-17T04:47:44.806Z,100625.21
2019-05-17T04:48:53.609Z,100616.23
2019-05-17T04:50:04.031Z,100622.23
2019-05-17T04:51:13.181Z,100623.18
2019-05-17T04:52:22.849Z,100622.73
2019-05-17T04:53:32.626Z,100620.08
2019-05-17T04:54:38.720Z,100625.25
2019-05-17T04:55:47.206Z,100624.38
2019-05-17T04:56:55.772Z,100621.06
2019-05-17T04:58:04.430Z,100621.53
2019-05-17T04:59:13.883Z,100622.35
2019-05-17T05:00:21.922Z,100619.87
2019-05-17T05:01:32.750Z,100618.92
2019-05-17T05:02:39.398Z,100623.92
2019-05-17T05:03:46.606Z,100629.06
2019-05-17T05:04:54.114Z,100631.13
2019-05-17T05:06:03.019Z,100628.48
2019-05-17T05:07:13.592Z,100629.77
2019-05-17T05:08:22.251Z,100627.73
2019-05-17T05:09:28.744Z,100628.61
2019-05-17T05:10:38.508Z,100627.20
2019-05-17T05:11:59.565Z,100619.87
2019-05-17T05:12:53.953Z,100622.19
2019-05-17T05:14:02.722Z,100614.28
2019-05-17T05:15:12.200Z,100616.72
2019-05-17T05:16:23.447Z,100617.89
2019-05-17T05:17:32.694Z,100612.33
2019-05-17T05:18:41.937Z,100613.41
2019-05-17T05:19:48.266Z,100615.94
2019-05-17T05:20:55.854Z,100613.87
2019-05-17T05:22:04.603Z,100616.03
2019-05-17T05:23:12.907Z,100619.38
2019-05-17T05:24:22.108Z,100615.78
2019-05-17T05:25:29.607Z,100615.48
2019-05-17T05:26:36.379Z,100610.72
2019-05-17T05:27:43.898Z,100612.79
2019-05-17T05:28:52.915Z,100607.61
2019-05-17T05:30:02.874Z,100608.89
2019-05-17T05:31:08.882Z,100607.53
2019-05-17T05:32:16.446Z,100605.47
2019-05-17T05:33:23.243Z,100603.80
2019-05-17T05:34:32.227Z,100610.10
2019-05-17T05:35:42.205Z,100606.58
2019-05-17T05:36:49.017Z,100611.75
2019-05-17T05:37:55.790Z,100604.59
2019-05-17T05:39:03.371Z,100606.41
2019-05-17T05:40:12.613Z,100598.17
2019-05-17T05:41:22.424Z,100597.67
2019-05-17T05:42:28.466Z,100597.97
2019-05-17T05:43:36.283Z,100599.91
2019-05-17T05:44:43.380Z,100601.53
2019-05-17T05:45:50.877Z,100598.75
2019-05-17T05:46:57.641Z,100603.75
2019-05-17T05:48:05.224Z,100604.88
2019-05-17T05:49:12.734Z,100598.41
2019-05-17T05:50:21.845Z,100603.84
2019-05-17T05:51:28.752Z,100607.20
2019-05-17T05:52:36.620Z,100615.35
2019-05-17T05:53:43.372Z,100610.01
2019-05-17T05:54:52.070Z,100607.30
2019-05-17T05:55:59.055Z,100610.12
2019-05-17T05:57:06.968Z,100610.48
2019-05-17T05:58:13.993Z,100616.78
2019-05-17T05:59:22.548Z,100617.97
2019-05-17T06:00:33.042Z,100615.73
2019-05-17T06:01:42.061Z,100622.85
2019-05-17T06:02:48.484Z,100615.55
2019-05-17T06:03:56.407Z,100614.55
2019-05-17T06:05:03.495Z,100620.14
2019-05-17T06:06:12.351Z,100618.00
2019-05-17T06:07:21.685Z,100615.84
2019-05-17T06:08:28.894Z,100612.67
2019-05-17T06:09:35.678Z,100615.94
2019-05-17T06:10:43.236Z,100621.95
2019-05-17T06:11:51.906Z,100612.53
2019-05-17T06:13:02.570Z,100614.31
2019-05-17T06:14:08.196Z,100604.73
2019-05-17T06:15:16.494Z,100607.13
2019-05-17T06:16:23.261Z,100600.70
2019-05-17T06:17:31.763Z,100602.72
2019-05-17T06:18:39.487Z,100598.55
2019-05-17T06:19:47.389Z,100598.36
2019-05-17T06:20:54.876Z,100597.17
2019-05-17T06:22:02.896Z,100599.84
2019-05-17T06:23:12.360Z,100598.91
2019-05-17T06:24:19.696Z,100599.70
2019-05-17T06:25:26.975Z,100595.29
2019-05-17T06:26:34.523Z,100589.64
2019-05-17T06:27:41.786Z,100600.75
2019-05-17T06:28:51.793Z,100601.53
2019-05-17T06:29:58.250Z,100609.97
2019-05-17T06:31:06.151Z,100607.08
2019-05-17T06:32:13.109Z,100600.43
2019-05-17T06:33:30.434Z,100607.73
2019-05-17T06:34:32.772Z,100603.00
2019-05-17T06:35:42.313Z,100606.76
2019-05-17T06:36:49.420Z,100610.85
2019-05-17T06:37:57.322Z,100613.78
2019-05-17T06:39:06.594Z,100609.92
2019-05-17T06:40:14.502Z,100608.47
2019-05-17T06:41:21.629Z,100609.42
2019-05-17T06:42:38.260Z,100611.49
2019-05-17T06:43:38.554Z,100608.78
2019-05-17T06:44:46.478Z,100606.76
2019-05-17T06:45:53.267Z,100605.80
2019-05-17T06:47:02.654Z,100607.27
2019-05-17T06:48:11.738Z,100609.01
2019-05-17T06:49:19.531Z,100605.75
2019-05-17T06:50:26.656Z,100607.81
2019-05-17T06:51:34.181Z,100609.02
2019-05-17T06:52:43.425Z,100608.59
2019-05-17T06:53:52.222Z,100601.21
2019-05-17T06:54:58.961Z,100608.88
2019-05-17T06:56:06.660Z,100606.08
2019-05-17T06:57:13.427Z,100607.16
2019-05-17T06:58:22.271Z,100606.09
2019-05-17T06:59:29.297Z,100614.03
2019-05-17T07:00:37.224Z,100613.48
2019-05-17T07:01:43.985Z,100614.27
2019-05-17T07:02:51.486Z,100621.37
2019-05-17T07:04:00.290Z,100612.31
2019-05-17T07:05:10.867Z,100613.34
2019-05-17T07:06:21.546Z,100615.64
2019-05-17T07:07:30.436Z,100608.48
2019-05-17T07:08:40.100Z,100611.52
2019-05-17T07:09:49.678Z,100612.14
2019-05-17T07:10:59.576Z,100611.64
2019-05-17T07:12:06.531Z,100608.52
2019-05-17T07:13:13.720Z,100609.39
2019-05-17T07:14:21.512Z,100608.70
2019-05-17T07:15:43.298Z,100610.91
2019-05-17T07:16:39.693Z,100606.36
2019-05-17T07:17:47.452Z,100601.80
2019-05-17T07:18:55.249Z,100599.13
2019-05-17T07:20:02.951Z,100596.41
2019-05-17T07:21:10.945Z,100606.28
2019-05-17T07:22:18.041Z,100601.30
2019-05-17T07:23:25.609Z,100598.81
2019-05-17T07:24:32.362Z,100605.09
2019-05-17T07:25:40.064Z,100601.73
2019-05-17T07:26:46.802Z,100606.27
2019-05-17T07:27:54.741Z,100605.36
2019-05-17T07:29:01.514Z,100600.98
2019-05-17T07:30:10.183Z,100598.60
2019-05-17T07:31:19.642Z,100599.13
2019-05-17T07:32:26.779Z,100603.10
2019-05-17T07:33:33.542Z,100595.17
2019-05-17T07:34:41.414Z,100595.43
2019-05-17T07:35:50.136Z,100593.06
2019-05-17T07:36:59.651Z,100592.91
2019-05-17T07:38:06.201Z,100588.31
2019-05-17T07:39:13.702Z,100594.04
2019-05-17T07:40:20.856Z,100586.47
2019-05-17T07:41:29.857Z,100584.23
2019-05-17T07:42:39.465Z,100580.63
2019-05-17T07:43:46.289Z,100580.23
2019-05-17T07:44:53.403Z,100578.38
2019-05-17T07:46:01.205Z,100579.92
2019-05-17T07:47:09.706Z,100576.83
2019-05-17T07:48:19.778Z,100574.65
2019-05-17T07:49:26.101Z,100571.29
2019-05-17T07:50:33.979Z,100576.06
2019-05-17T07:51:40.717Z,100564.36
2019-05-17T07:52:49.970Z,100563.89
2019-05-17T07:53:56.688Z,100568.28
2019-05-17T07:55:04.228Z,100570.34
2019-05-17T07:56:11.781Z,100568.54
2019-05-17T07:57:20.731Z,100565.69
2019-05-17T07:58:29.714Z,100564.09
2019-05-17T07:59:39.597Z,100564.61
2019-05-17T08:00:45.661Z,100562.28
2019-05-17T08:01:53.291Z,100555.27
2019-05-17T08:03:00.802Z,100556.81
2019-05-17T08:04:10.004Z,100559.64
2019-05-17T08:05:17.498Z,100562.22
2019-05-17T08:06:25.336Z,100555.03
2019-05-17T08:07:32.448Z,100558.30
2019-05-17T08:08:40.945Z,100555.59
2019-05-17T08:09:50.469Z,100553.04
2019-05-17T08:11:00.133Z,100550.34
2019-05-17T08:12:05.769Z,100554.20
2019-05-17T08:13:25.481Z,100549.86
2019-05-17T08:14:29.535Z,100554.67
2019-05-17T08:15:31.628Z,100553.08
2019-05-17T08:16:39.492Z,100558.37
2019-05-17T08:17:50.047Z,100544.17
2019-05-17T08:18:56.854Z,100545.84
2019-05-17T08:20:04.711Z,100547.81
2019-05-17T08:21:11.860Z,100551.09
2019-05-17T08:22:20.230Z,100539.68
2019-05-17T08:23:30.204Z,100544.47
2019-05-17T08:24:36.799Z,100548.28
2019-05-17T08:25:52.707Z,100540.61
2019-05-17T08:26:53.187Z,100543.25
2019-05-17T08:28:00.264Z,100545.64
2019-05-17T08:29:09.859Z,100546.88
2019-05-17T08:30:17.177Z,100542.88
2019-05-17T08:31:24.673Z,100541.55
2019-05-17T08:32:31.859Z,100541.55
2019-05-17T08:33:40.648Z,100536.11
2019-05-17T08:34:49.546Z,100534.77
2019-05-17T08:35:59.624Z,100540.52
2019-05-17T08:37:06.386Z,100536.59
2019-05-17T08:38:13.889Z,100536.70
2019-05-17T08:39:20.641Z,100530.57
2019-05-17T08:40:30.477Z,100535.95
2019-05-17T08:41:37.087Z,100532.27
2019-05-17T08:42:44.614Z,100537.28
2019-05-17T08:43:51.761Z,100534.77
2019-05-17T08:45:00.285Z,100527.83
2019-05-17T08:46:10.339Z,100528.48
2019-05-17T08:47:16.853Z,100530.25
2019-05-17T08:48:23.802Z,100520.08
2019-05-17T08:49:31.299Z,100527.99
2019-05-17T08:50:40.257Z,100529.16
2019-05-17T08:51:49.944Z,100525.23
2019-05-17T08:52:56.243Z,100524.98
2019-05-17T08:54:03.887Z,100527.19
2019-05-17T08:55:10.897Z,100525.77
2019-05-17T08:56:20.552Z,100526.98
2019-05-17T08:57:26.888Z,100522.22
2019-05-17T08:58:34.746Z,100522.30
2019-05-17T08:59:41.552Z,100518.89
2019-05-17T09:00:50.508Z,100521.30
2019-05-17T09:01:59.954Z,100517.38
2019-05-17T09:03:10.354Z,100519.89
2019-05-17T09:04:16.589Z,100516.92
2019-05-17T09:05:24.569Z,100517.33
2019-05-17T09:06:31.352Z,100521.97
2019-05-17T09:07:40.261Z,100520.34
2019-05-17T09:08:49.812Z,100517.05
2019-05-17T09:09:57.384Z,100517.45
2019-05-17T09:11:04.196Z,100521.63
2019-05-17T09:12:11.849Z,100519.73
2019-05-17T09:13:19.550Z,100517.02
2019-05-17T09:14:29.338Z,100521.34
2019-05-17T09:15:35.801Z,100519.56
2019-05-17T09:16:43.354Z,100518.84
2019-05-17T09:17:50.127Z,100518.63
2019-05-17T09:18:57.625Z,100511.31
2019-05-17T09:20:04.985Z,100521.87
2019-05-17T09:21:12.499Z,100521.92
2019-05-17T09:22:19.830Z,100514.86
2019-05-17T09:23:27.577Z,100511.31
2019-05-17T09:24:34.332Z,100512.77
2019-05-17T09:25:42.211Z,100516.42
2019-05-17T09:26:49.336Z,100508.75
2019-05-17T09:27:57.413Z,100522.70
2019-05-17T09:29:04.180Z,100502.11
2019-05-17T09:30:13.518Z,100512.45
2019-05-17T09:31:20.582Z,100505.14
2019-05-17T09:32:29.620Z,100507.45
2019-05-17T09:33:36.674Z,100508.53
2019-05-17T09:34:44.273Z,100511.31
2019-05-17T09:35:51.046Z,100510.17
2019-05-17T09:37:00.312Z,100511.37
2019-05-17T09:38:09.850Z,100515.84
2019-05-17T09:39:16.691Z,100500.62
2019-05-17T09:40:23.457Z,100498.25
2019-05-17T09:41:31.402Z,100497.38
2019-05-17T09:42:40.831Z,100496.30
2019-05-17T09:43:49.664Z,100498.60
2019-05-17T09:44:56.355Z,100496.14
2019-05-17T09:46:03.923Z,100499.03
2019-05-17T09:47:10.685Z,100497.69
2019-05-17T09:48:19.647Z,100493.20
2019-05-17T09:49:26.832Z,100499.07
2019-05-17T09:50:34.349Z,100500.51
2019-05-17T09:51:41.146Z,100498.55
2019-05-17T09:52:49.439Z,100495.85
2019-05-17T09:53:56.440Z,100496.91
2019-05-17T09:55:04.281Z,100497.96
2019-05-17T09:56:11.229Z,100493.95
2019-05-17T09:57:20.460Z,100491.55
2019-05-17T09:58:29.800Z,100488.66
2019-05-17T09:59:36.754Z,100490.74
2019-05-17T10:00:43.965Z,100491.56
2019-05-17T10:01:52.170Z,100485.88
2019-05-17T10:03:00.050Z,100491.44
2019-05-17T10:04:07.726Z,100487.86
2019-05-17T10:05:14.587Z,100486.23
2019-05-17T10:06:22.084Z,100484.05
2019-05-17T10:07:29.867Z,100487.22
2019-05-17T10:08:39.423Z,100489.91
2019-05-17T10:09:47.150Z,100487.40
2019-05-17T10:11:04.981Z,100487.22
2019-05-17T10:12:03.572Z,100484.12
2019-05-17T10:13:11.109Z,100485.63
2019-05-17T10:14:25.804Z,100487.55
2019-05-17T10:15:29.956Z,100489.80
2019-05-17T10:16:36.091Z,100487.09
2019-05-17T10:17:44.415Z,100489.20
2019-05-17T10:18:51.224Z,100484.88
2019-05-17T10:19:59.929Z,100484.39
2019-05-17T10:21:07.156Z,100486.69
2019-05-17T10:22:14.819Z,100481.05
2019-05-17T10:23:21.612Z,100474.97
2019-05-17T10:24:38.078Z,100482.28
2019-05-17T10:25:40.074Z,100477.83
2019-05-17T10:26:49.891Z,100478.01
2019-05-17T10:27:56.802Z,100481.66
2019-05-17T10:29:04.803Z,100479.73
2019-05-17T10:30:12.315Z,100478.47
2019-05-17T10:31:19.913Z,100477.73
2019-05-17T10:32:27.547Z,100468.59
2019-05-17T10:33:35.254Z,100469.94
2019-05-17T10:34:42.229Z,100463.43
2019-05-17T10:35:50.116Z,100462.48
2019-05-17T10:36:56.897Z,100466.59
2019-05-17T10:38:04.786Z,100464.98
2019-05-17T10:39:11.723Z,100465.09
2019-05-17T10:40:20.973Z,100457.47
2019-05-17T10:41:29.970Z,100464.91
2019-05-17T10:42:39.349Z,100463.56
2019-05-17T10:43:45.498Z,100458.76
2019-05-17T10:44:54.732Z,100461.21
2019-05-17T10:46:02.154Z,100454.80
2019-05-17T10:47:10.226Z,100458.53
2019-05-17T10:48:17.521Z,100454.98
2019-05-17T10:49:25.543Z,100456.08
2019-05-17T10:50:32.717Z,100451.05
2019-05-17T10:51:40.404Z,100449.56
2019-05-17T10:52:47.629Z,100450.42
2019-05-17T10:53:55.126Z,100446.13
2019-05-17T10:55:01.998Z,100440.57
2019-05-17T10:56:09.960Z,100447.91
2019-05-17T10:57:19.449Z,100449.09
2019-05-17T10:58:27.078Z,100445.52
2019-05-17T10:59:33.911Z,100444.17
2019-05-17T11:00:41.758Z,100450.55
2019-05-17T11:01:50.155Z,100448.87
2019-05-17T11:03:00.479Z,100450.09
2019-05-17T11:04:06.714Z,100450.79
2019-05-17T11:05:14.835Z,100450.39
2019-05-17T11:06:21.990Z,100448.83
2019-05-17T11:07:30.117Z,100447.72
2019-05-17T11:08:37.040Z,100447.84
2019-05-17T11:09:44.569Z,100448.84
2019-05-17T11:10:51.317Z,100444.98
2019-05-17T11:11:58.926Z,100441.27
2019-05-17T11:13:06.022Z,100443.75
2019-05-17T11:14:13.816Z,100446.73
2019-05-17T11:15:20.598Z,100444.81
2019-05-17T11:16:28.479Z,100442.56
2019-05-17T11:17:35.430Z,100445.51
2019-05-17T11:18:43.066Z,100447.45
2019-05-17T11:19:49.830Z,100449.44
2019-05-17T11:20:57.715Z,100442.87
2019-05-17T11:22:05.153Z,100445.38
2019-05-17T11:23:12.677Z,100441.39
2019-05-17T11:24:19.523Z,100447.63
2019-05-17T11:25:27.094Z,100446.73
2019-05-17T11:26:34.852Z,100449.89
2019-05-17T11:27:42.865Z,100450.41
2019-05-17T11:28:49.632Z,100440.00
2019-05-17T11:29:57.206Z,100437.53
2019-05-17T11:31:04.028Z,100447.02
2019-05-17T11:32:11.528Z,100444.05
2019-05-17T11:33:18.852Z,100445.27
2019-05-17T11:34:26.353Z,100444.05
2019-05-17T11:35:33.497Z,100443.72
2019-05-17T11:36:41.001Z,100453.70
2019-05-17T11:37:47.745Z,100447.95
2019-05-17T11:38:55.451Z,100455.85
2019-05-17T11:40:02.234Z,100450.70
2019-05-17T11:41:20.558Z,100451.59
2019-05-17T11:42:18.754Z,100455.06
2019-05-17T11:43:26.923Z,100452.48
2019-05-17T11:44:33.925Z,100449.36
2019-05-17T11:45:41.442Z,100444.39
2019-05-17T11:46:48.198Z,100445.80
2019-05-17T11:47:55.768Z,100444.85
2019-05-17T11:49:02.526Z,100444.89
2019-05-17T11:50:10.894Z,100444.94
2019-05-17T11:51:19.061Z,100441.47
2019-05-17T11:52:26.949Z,100437.80
2019-05-17T11:53:33.708Z,100438.62
2019-05-17T11:54:41.231Z,100444.53
2019-05-17T11:55:48.003Z,100430.55
2019-05-17T11:56:55.893Z,100439.28
2019-05-17T11:58:02.654Z,100438.39
2019-05-17T11:59:10.345Z,100436.10
2019-05-17T12:00:19.883Z,100441.47
2019-05-17T12:01:27.555Z,100440.70
2019-05-17T12:02:34.821Z,100436.30
2019-05-17T12:03:43.185Z,100439.11
2019-05-17T12:04:49.946Z,100434.88
2019-05-17T12:05:57.841Z,100434.68
2019-05-17T12:07:05.131Z,100437.63
2019-05-17T12:08:13.478Z,100428.53
2019-05-17T12:09:20.611Z,100431.87
2019-05-17T12:10:28.172Z,100431.73
2019-05-17T12:11:35.247Z,100433.81
2019-05-17T12:12:42.974Z,100427.11
2019-05-17T12:13:49.869Z,100433.16
2019-05-17T12:14:57.352Z,100425.48
2019-05-17T12:16:04.717Z,100427.70
2019-05-17T12:17:12.259Z,100431.80
2019-05-17T12:18:19.445Z,100429.48
2019-05-17T12:19:27.282Z,100433.52
2019-05-17T12:20:34.080Z,100436.86
2019-05-17T12:21:41.895Z,100429.98
2019-05-17T12:22:48.777Z,100430.58
2019-05-17T12:23:56.557Z,100424.79
2019-05-17T12:25:03.302Z,100432.23
2019-05-17T12:26:10.847Z,100427.53
2019-05-17T12:27:17.999Z,100424.70
2019-05-17T12:28:25.857Z,100427.50
2019-05-17T12:29:33.325Z,100424.99
2019-05-17T12:30:40.833Z,100425.72
2019-05-17T12:31:48.024Z,100423.37
2019-05-17T12:32:55.908Z,100422.84
2019-05-17T12:34:03.071Z,100428.23
2019-05-17T12:35:11.075Z,100434.75
2019-05-17T12:36:17.837Z,100429.92
2019-05-17T12:37:25.358Z,100428.56
2019-05-17T12:38:32.750Z,100423.17
2019-05-17T12:39:40.288Z,100421.62
2019-05-17T12:40:47.044Z,100424.66
2019-05-17T12:41:54.703Z,100429.26
2019-05-17T12:43:01.550Z,100427.37
2019-05-17T12:44:09.125Z,100428.96
2019-05-17T12:45:16.691Z,100431.67
2019-05-17T12:46:24.191Z,100426.98
2019-05-17T12:47:30.998Z,100435.94
2019-05-17T12:48:38.588Z,100427.27
2019-05-17T12:49:45.352Z,100425.09
2019-05-17T12:50:53.104Z,100433.30
2019-05-17T12:51:59.857Z,100428.27
2019-05-17T12:53:08.235Z,100429.39
2019-05-17T12:54:15.312Z,100429.92
2019-05-17T12:55:22.884Z,100431.70